createdAt,value
2018-09-03T00:00:54.991Z,6.20
2018-09-03T00:03:23.735Z,3.57
2018-09-03T00:05:52.491Z,4.60
2018-09-03T00:08:21.271Z,5.57
2018-09-03T00:10:50.038Z,3.70
2018-09-03T00:13:18.783Z,5.50
2018-09-03T00:15:47.475Z,4.70
2018-09-03T00:18:17.016Z,3.63
2018-09-03T00:20:45.819Z,3.43
2018-09-03T00:23:14.465Z,3.60
2018-09-03T00:25:43.301Z,4.73
2018-09-03T00:28:12.029Z,9.60
2018-09-03T00:30:40.776Z,3.13
2018-09-03T00:33:14.664Z,4.43
2018-09-03T00:35:52.147Z,4.67
2018-09-03T00:39:27.688Z,5.80
2018-09-03T00:42:01.530Z,3.93
2018-09-03T00:44:35.677Z,3.60
2018-09-03T00:47:08.615Z,3.87
2018-09-03T00:49:37.336Z,4.07
2018-09-03T00:52:06.087Z,3.90
2018-09-03T00:54:35.536Z,3.90
2018-09-03T00:57:04.260Z,4.77
2018-09-03T00:59:32.948Z,4.20
2018-09-03T01:02:01.723Z,5.40
2018-09-03T01:04:30.395Z,4.27
2018-09-03T01:06:58.943Z,5.20
2018-09-03T01:09:27.438Z,8.53
2018-09-03T01:11:56.033Z,4.17
2018-09-03T01:14:24.675Z,4.23
2018-09-03T01:16:53.414Z,4.50
2018-09-03T01:19:21.968Z,4.70
2018-09-03T01:21:50.612Z,7.40
2018-09-03T01:24:19.295Z,5.13
2018-09-03T01:26:47.994Z,4.07
2018-09-03T01:29:16.643Z,10.50
2018-09-03T01:31:45.341Z,6.23
2018-09-03T01:34:13.958Z,4.80
2018-09-03T01:36:42.687Z,4.80
2018-09-03T01:39:11.281Z,4.90
2018-09-03T01:41:39.860Z,5.40
2018-09-03T01:44:08.494Z,4.60
2018-09-03T01:46:37.181Z,4.60
2018-09-03T01:49:05.719Z,4.23
2018-09-03T01:51:34.340Z,5.03
2018-09-03T01:54:02.993Z,5.33
2018-09-03T01:56:31.623Z,5.00
2018-09-03T01:59:00.279Z,6.40
2018-09-03T02:01:28.873Z,5.50
2018-09-03T02:03:57.491Z,4.93
2018-09-03T02:06:26.140Z,4.67
2018-09-03T02:08:54.855Z,5.57
2018-09-03T02:11:23.551Z,4.20
2018-09-03T02:13:52.280Z,6.03
2018-09-03T02:16:20.932Z,5.60
2018-09-03T02:18:49.533Z,6.87
2018-09-03T02:21:18.284Z,6.10
2018-09-03T02:23:46.924Z,6.40
2018-09-03T02:26:15.495Z,7.23
2018-09-03T02:28:44.102Z,6.00
2018-09-03T02:31:12.764Z,6.70
2018-09-03T02:33:41.425Z,5.97
2018-09-03T02:36:09.967Z,4.93
2018-09-03T02:38:38.583Z,6.23
2018-09-03T02:41:07.261Z,8.50
2018-09-03T02:43:35.828Z,5.80
2018-09-03T02:46:04.419Z,5.33
2018-09-03T02:48:33.040Z,6.43
2018-09-03T02:51:01.754Z,5.40
2018-09-03T02:53:30.428Z,7.40
2018-09-03T02:55:59.135Z,5.37
2018-09-03T02:58:27.790Z,5.67
2018-09-03T03:00:56.427Z,5.47
2018-09-03T03:03:25.189Z,4.90
2018-09-03T03:05:53.922Z,10.17
2018-09-03T03:08:22.630Z,6.63
2018-09-03T03:10:51.232Z,7.43
2018-09-03T03:13:19.969Z,6.87
2018-09-03T03:15:48.635Z,6.40
2018-09-03T03:18:17.212Z,5.83
2018-09-03T03:20:45.807Z,6.60
2018-09-03T03:23:14.343Z,9.43
2018-09-03T03:25:42.940Z,8.33
2018-09-03T03:28:11.543Z,5.63
2018-09-03T03:30:40.208Z,6.20
2018-09-03T03:33:08.845Z,7.67
2018-09-03T03:35:37.372Z,7.40
2018-09-03T03:38:06.221Z,6.63
2018-09-03T03:40:34.963Z,7.47
2018-09-03T03:43:03.591Z,5.43
2018-09-03T03:45:32.184Z,7.17
2018-09-03T03:48:00.757Z,8.20
2018-09-03T03:50:29.449Z,9.70
2018-09-03T03:52:58.189Z,27.47
2018-09-03T03:55:26.901Z,7.33
2018-09-03T03:57:55.470Z,8.87
2018-09-03T04:00:24.092Z,7.80
2018-09-03T04:02:52.793Z,5.63
2018-09-03T04:05:21.450Z,11.37
2018-09-03T04:07:50.092Z,6.13
2018-09-03T04:10:18.779Z,6.80
2018-09-03T04:12:52.871Z,7.57
2018-09-03T04:15:21.540Z,7.63
2018-09-03T04:17:50.484Z,7.70
2018-09-03T04:20:19.256Z,10.53
2018-09-03T04:22:47.943Z,9.20
2018-09-03T04:25:16.661Z,7.93
2018-09-03T04:27:45.420Z,8.63
2018-09-03T04:30:14.041Z,7.87
2018-09-03T04:32:43.509Z,8.50
2018-09-03T04:35:12.136Z,8.00
2018-09-03T04:37:40.785Z,8.00
2018-09-03T04:40:09.387Z,6.77
2018-09-03T04:42:38.038Z,8.70
2018-09-03T04:45:06.916Z,8.53
2018-09-03T04:47:35.677Z,15.33
2018-09-03T04:50:04.418Z,7.87
2018-09-03T04:52:33.390Z,9.13
2018-09-03T04:55:02.041Z,8.03
2018-09-03T04:57:30.780Z,8.70
2018-09-03T04:59:59.594Z,9.87
2018-09-03T05:02:28.287Z,9.73
2018-09-03T05:04:57.053Z,8.07
2018-09-03T05:07:25.741Z,8.63
2018-09-03T05:09:54.445Z,9.40
2018-09-03T05:12:23.210Z,9.87
2018-09-03T05:14:51.936Z,13.23
2018-09-03T05:17:20.745Z,12.07
2018-09-03T05:19:49.600Z,10.43
2018-09-03T05:22:18.326Z,10.80
2018-09-03T05:24:47.096Z,9.10
2018-09-03T05:27:15.803Z,13.00
2018-09-03T05:29:44.578Z,9.73
2018-09-03T05:32:13.241Z,9.90
2018-09-03T05:34:41.999Z,10.27
2018-09-03T05:37:10.649Z,11.10
2018-09-03T05:39:39.362Z,10.97
2018-09-03T05:42:08.139Z,9.80
2018-09-03T05:44:36.923Z,9.40
2018-09-03T05:47:06.620Z,16.20
2018-09-03T05:49:35.429Z,15.73
2018-09-03T05:52:04.146Z,10.50
2018-09-03T05:54:32.914Z,10.30
2018-09-03T05:57:01.639Z,10.87
2018-09-03T05:59:30.384Z,10.43
2018-09-03T06:01:59.638Z,14.53
2018-09-03T06:04:28.334Z,13.27
2018-09-03T06:06:57.163Z,17.40
2018-09-03T06:09:25.954Z,12.97
2018-09-03T06:11:54.620Z,10.10
2018-09-03T06:14:23.320Z,13.40
2018-09-03T06:16:55.320Z,12.23
2018-09-03T06:19:24.020Z,23.00
2018-09-03T06:21:52.634Z,9.50
2018-09-03T06:24:21.417Z,12.97
2018-09-03T06:26:51.280Z,23.23
2018-09-03T06:29:20.070Z,17.03
2018-09-03T06:31:48.792Z,10.70
2018-09-03T06:34:17.564Z,14.07
2018-09-03T06:37:00.875Z,12.93
2018-09-03T06:39:29.559Z,19.57
2018-09-03T06:41:58.292Z,14.13
2018-09-03T06:44:27.052Z,10.83
2018-09-03T06:46:56.848Z,13.83
2018-09-03T06:49:25.490Z,16.10
2018-09-03T06:51:54.151Z,13.30
2018-09-03T06:54:22.795Z,18.37
2018-09-03T06:56:51.498Z,13.03
2018-09-03T06:59:20.155Z,12.70
2018-09-03T07:01:48.810Z,15.17
2018-09-03T07:04:17.487Z,29.13
2018-09-03T07:06:46.290Z,14.10
2018-09-03T07:09:15.029Z,22.10
2018-09-03T07:11:43.729Z,15.60
2018-09-03T07:14:12.382Z,10.87
2018-09-03T07:16:41.086Z,14.67
2018-09-03T07:19:09.758Z,13.40
2018-09-03T07:21:38.565Z,19.80
2018-09-03T07:24:07.130Z,11.47
2018-09-03T07:26:36.580Z,10.53
2018-09-03T07:29:05.307Z,10.80
2018-09-03T07:31:34.081Z,25.13
2018-09-03T07:34:02.805Z,12.60
2018-09-03T07:36:31.551Z,12.87
2018-09-03T07:39:00.273Z,12.60
2018-09-03T07:41:28.983Z,18.93
2018-09-03T07:43:57.804Z,14.73
2018-09-03T07:46:26.677Z,16.97
2018-09-03T07:48:55.379Z,9.93
2018-09-03T07:51:24.070Z,11.87
2018-09-03T07:53:52.831Z,12.20
2018-09-03T07:56:21.586Z,12.97
2018-09-03T07:58:50.345Z,12.10
2018-09-03T08:01:19.161Z,23.07
2018-09-03T08:03:47.898Z,12.40
2018-09-03T08:06:16.614Z,14.13
2018-09-03T08:08:45.319Z,10.90
2018-09-03T08:11:14.072Z,21.83
2018-09-03T08:13:43.216Z,11.47
2018-09-03T08:16:12.716Z,14.90
2018-09-03T08:18:42.036Z,16.77
2018-09-03T08:21:10.702Z,10.37
2018-09-03T08:23:39.401Z,12.40
2018-09-03T08:26:08.049Z,13.90
2018-09-03T08:28:36.806Z,12.87
2018-09-03T08:31:05.815Z,11.57
2018-09-03T08:33:34.594Z,13.87
2018-09-03T08:36:03.386Z,10.43
2018-09-03T08:38:32.138Z,10.97
2018-09-03T08:41:00.895Z,11.50
2018-09-03T08:43:29.678Z,12.37
2018-09-03T08:45:58.395Z,22.17
2018-09-03T08:48:26.965Z,9.87
2018-09-03T08:50:55.673Z,10.10
2018-09-03T08:53:24.344Z,24.73
2018-09-03T08:55:53.104Z,9.60
2018-09-03T08:58:21.797Z,14.00
2018-09-03T09:00:50.572Z,12.00
2018-09-03T09:03:24.549Z,8.50
2018-09-03T09:05:53.286Z,11.10
2018-09-03T09:08:30.876Z,10.50
2018-09-03T09:10:59.483Z,9.33
2018-09-03T09:13:28.278Z,9.70
2018-09-03T09:15:56.883Z,10.40
2018-09-03T09:18:25.548Z,10.17
2018-09-03T09:20:54.212Z,11.90
2018-09-03T09:23:22.803Z,9.80
2018-09-03T09:25:51.493Z,12.03
2018-09-03T09:28:20.357Z,11.60
2018-09-03T09:30:49.002Z,10.27
2018-09-03T09:33:17.705Z,9.60
2018-09-03T09:35:46.419Z,9.87
2018-09-03T09:38:17.174Z,10.17
2018-09-03T09:40:45.800Z,9.47
2018-09-03T09:43:14.589Z,11.07
2018-09-03T09:45:43.340Z,10.60
2018-09-03T09:48:19.197Z,10.63
2018-09-03T09:50:47.859Z,11.17
2018-09-03T09:53:16.453Z,33.57
2018-09-03T09:55:45.195Z,10.00
2018-09-03T09:58:13.833Z,26.90
2018-09-03T10:00:47.607Z,10.07
2018-09-03T10:03:16.230Z,14.13
2018-09-03T10:05:45.028Z,11.00
2018-09-03T10:08:13.652Z,12.90
2018-09-03T10:10:55.880Z,10.87
2018-09-03T10:13:24.509Z,10.57
2018-09-03T10:15:53.151Z,10.90
2018-09-03T10:18:21.791Z,18.40
2018-09-03T10:20:50.460Z,11.30
2018-09-03T10:23:19.308Z,12.13
2018-09-03T10:25:47.929Z,14.17
2018-09-03T10:28:16.611Z,11.90
2018-09-03T10:30:48.771Z,11.30
2018-09-03T10:33:17.431Z,11.07
2018-09-03T10:35:46.164Z,12.13
2018-09-03T10:38:14.910Z,13.53
2018-09-03T10:40:43.542Z,10.23
2018-09-03T10:43:12.221Z,13.63
2018-09-03T10:45:43.661Z,15.63
2018-09-03T10:48:13.607Z,12.40
2018-09-03T10:50:42.351Z,15.20
2018-09-03T10:53:11.274Z,10.80
2018-09-03T10:55:40.909Z,11.63
2018-09-03T10:58:10.124Z,13.10
2018-09-03T11:00:39.870Z,12.30
2018-09-03T11:03:08.618Z,13.30
2018-09-03T11:05:37.223Z,12.57
2018-09-03T11:08:05.909Z,15.37
2018-09-03T11:10:34.706Z,11.93
2018-09-03T11:13:03.323Z,12.83
2018-09-03T11:15:31.893Z,22.10
2018-09-03T11:18:00.566Z,27.93
2018-09-03T11:20:30.387Z,14.17
2018-09-03T11:22:59.596Z,12.93
2018-09-03T11:25:30.497Z,20.47
2018-09-03T11:27:59.472Z,19.47
2018-09-03T11:30:28.434Z,22.60
2018-09-03T11:32:58.583Z,17.20
2018-09-03T11:35:27.351Z,13.77
2018-09-03T11:37:56.144Z,13.17
2018-09-03T11:40:25.530Z,12.97
2018-09-03T11:42:54.309Z,14.30
2018-09-03T11:45:23.783Z,15.37
2018-09-03T11:47:52.500Z,22.50
2018-09-03T11:50:21.459Z,16.27
2018-09-03T11:52:50.315Z,18.90
2018-09-03T11:55:19.183Z,24.50
2018-09-03T11:57:47.936Z,29.40
2018-09-03T12:00:22.079Z,14.63
2018-09-03T12:02:50.848Z,22.60
2018-09-03T12:05:19.516Z,17.97
2018-09-03T12:07:48.332Z,16.50
2018-09-03T12:10:18.070Z,17.43
2018-09-03T12:12:46.889Z,26.93
2018-09-03T12:15:21.545Z,22.87
2018-09-03T12:17:50.224Z,25.63
2018-09-03T12:20:18.915Z,18.43
2018-09-03T12:22:47.561Z,14.97
2018-09-03T12:25:16.328Z,16.43
2018-09-03T12:27:44.996Z,14.73
2018-09-03T12:30:13.587Z,16.97
2018-09-03T12:32:42.298Z,20.40
2018-09-03T12:35:11.006Z,15.83
2018-09-03T12:37:39.760Z,17.97
2018-09-03T12:40:09.459Z,27.73
2018-09-03T12:42:38.192Z,16.47
2018-09-03T12:45:07.012Z,24.30
2018-09-03T12:47:35.605Z,21.23
2018-09-03T12:50:04.406Z,16.43
2018-09-03T12:52:33.104Z,29.73
2018-09-03T12:55:01.783Z,18.30
2018-09-03T12:57:30.516Z,20.23
2018-09-03T13:00:05.135Z,20.50
2018-09-03T13:02:27.864Z,19.53
2018-09-03T13:04:56.574Z,20.27
2018-09-03T13:07:25.290Z,26.47
2018-09-03T13:09:54.020Z,22.97
2018-09-03T13:12:23.804Z,17.37
2018-09-03T13:14:52.452Z,22.43
2018-09-03T13:17:21.082Z,20.37
2018-09-03T13:19:49.745Z,18.50
2018-09-03T13:22:18.396Z,19.80
2018-09-03T13:24:47.220Z,30.67
2018-09-03T13:27:15.820Z,32.60
2018-09-03T13:29:44.454Z,28.50
2018-09-03T13:32:13.120Z,30.40
2018-09-03T13:34:41.838Z,19.77
2018-09-03T13:37:10.859Z,18.73
2018-09-03T13:39:39.623Z,21.80
2018-09-03T13:42:08.374Z,30.57
2018-09-03T13:44:37.120Z,28.70
2018-09-03T13:47:05.839Z,20.97
2018-09-03T13:49:34.520Z,28.23
2018-09-03T13:52:03.229Z,27.73
2018-09-03T13:54:31.945Z,22.93
2018-09-03T13:57:00.683Z,30.33
2018-09-03T13:59:29.436Z,34.20
2018-09-03T14:01:58.223Z,31.97
2018-09-03T14:04:26.920Z,25.97
2018-09-03T14:06:55.934Z,24.20
2018-09-03T14:09:24.636Z,37.67
2018-09-03T14:11:53.431Z,19.27
2018-09-03T14:14:22.116Z,20.10
2018-09-03T14:16:50.858Z,25.57
2018-09-03T14:19:19.529Z,30.93
2018-09-03T14:21:48.285Z,27.60
2018-09-03T14:24:16.990Z,33.80
2018-09-03T14:26:45.705Z,28.13
2018-09-03T14:29:14.445Z,22.07
2018-09-03T14:31:43.148Z,35.00
2018-09-03T14:34:11.896Z,32.00
2018-09-03T14:36:40.633Z,23.13
2018-09-03T14:39:11.327Z,21.53
2018-09-03T14:41:40.274Z,26.33
2018-09-03T14:44:09.632Z,31.07
2018-09-03T14:46:38.352Z,22.50
2018-09-03T14:49:07.132Z,21.17
2018-09-03T14:51:35.895Z,23.20
2018-09-03T14:54:04.626Z,19.10
2018-09-03T14:56:33.355Z,21.60
2018-09-03T14:59:01.994Z,22.00
2018-09-03T15:01:30.654Z,26.23
2018-09-03T15:03:59.359Z,20.33
2018-09-03T15:06:28.023Z,21.00
2018-09-03T15:08:56.799Z,17.60
2018-09-03T15:11:25.586Z,22.27
2018-09-03T15:13:58.425Z,20.73
2018-09-03T15:16:29.992Z,27.07
2018-09-03T15:18:59.490Z,23.07
2018-09-03T15:21:28.262Z,33.97
2018-09-03T15:23:56.977Z,22.00
2018-09-03T15:26:25.793Z,25.83
2018-09-03T15:28:54.633Z,26.53
2018-09-03T15:31:25.370Z,22.10
2018-09-03T15:33:54.024Z,22.07
2018-09-03T15:36:22.858Z,35.33
2018-09-03T15:38:52.657Z,26.57
2018-09-03T15:41:21.431Z,34.63
2018-09-03T15:43:50.158Z,30.23
2018-09-03T15:46:19.187Z,19.70
2018-09-03T15:48:47.895Z,19.90
2018-09-03T15:51:16.640Z,21.20
2018-09-03T15:53:45.471Z,31.40
2018-09-03T15:56:14.205Z,22.27
2018-09-03T15:58:42.984Z,35.33
2018-09-03T16:01:11.769Z,23.00
2018-09-03T16:03:40.390Z,18.90
2018-09-03T16:06:09.087Z,29.90
2018-09-03T16:08:37.799Z,21.97
2018-09-03T16:11:06.612Z,20.90
2018-09-03T16:13:35.335Z,25.40
2018-09-03T16:16:04.458Z,24.70
2018-09-03T16:18:33.171Z,19.70
2018-09-03T16:21:01.931Z,21.77
2018-09-03T16:23:30.524Z,32.43
2018-09-03T16:25:59.217Z,19.73
2018-09-03T16:28:28.016Z,23.77
2018-09-03T16:30:56.642Z,27.90
2018-09-03T16:33:26.438Z,32.07
2018-09-03T16:35:55.159Z,20.73
2018-09-03T16:38:23.904Z,25.10
2018-09-03T16:40:52.657Z,21.13
2018-09-03T16:43:21.345Z,31.27
2018-09-03T16:45:50.143Z,18.67
2018-09-03T16:48:18.808Z,22.67
2018-09-03T16:50:47.455Z,28.30
2018-09-03T16:53:16.230Z,18.97
2018-09-03T16:55:45.008Z,36.07
2018-09-03T16:58:13.740Z,19.10
2018-09-03T17:00:42.381Z,33.37
2018-09-03T17:03:11.097Z,18.97
2018-09-03T17:05:39.840Z,44.43
2018-09-03T17:08:08.578Z,23.87
2018-09-03T17:10:37.191Z,21.80
2018-09-03T17:13:05.889Z,23.63
2018-09-03T17:15:34.553Z,16.60
2018-09-03T17:18:03.337Z,20.30
2018-09-03T17:20:32.295Z,17.80
2018-09-03T17:23:00.913Z,22.40
2018-09-03T17:25:29.700Z,15.73
2018-09-03T17:27:58.461Z,17.90
2018-09-03T17:30:27.164Z,21.53
2018-09-03T17:32:55.881Z,24.37
2018-09-03T17:35:24.594Z,24.57
2018-09-03T17:37:53.258Z,28.00
2018-09-03T17:40:21.965Z,18.97
2018-09-03T17:42:50.738Z,23.73
2018-09-03T17:45:19.483Z,19.47
2018-09-03T17:47:48.201Z,18.57
2018-09-03T17:50:16.998Z,22.03
2018-09-03T17:52:45.734Z,36.27
2018-09-03T17:55:14.457Z,27.37
2018-09-03T17:57:43.172Z,19.10
2018-09-03T18:00:11.999Z,18.13
2018-09-03T18:02:40.790Z,22.60
2018-09-03T18:05:09.441Z,26.97
2018-09-03T18:07:38.132Z,30.70
2018-09-03T18:10:06.818Z,19.90
2018-09-03T18:12:35.612Z,22.43
2018-09-03T18:15:04.352Z,25.73
2018-09-03T18:17:33.138Z,16.90
2018-09-03T18:20:01.884Z,29.40
2018-09-03T18:22:30.649Z,25.93
2018-09-03T18:24:59.371Z,22.00
2018-09-03T18:27:28.084Z,50.07
2018-09-03T18:29:56.830Z,27.30
2018-09-03T18:32:25.545Z,35.43
2018-09-03T18:34:54.325Z,25.47
2018-09-03T18:37:23.040Z,32.83
2018-09-03T18:39:51.994Z,26.40
2018-09-03T18:42:20.645Z,29.90
2018-09-03T18:44:49.395Z,25.43
2018-09-03T18:47:18.140Z,31.67
2018-09-03T18:49:47.754Z,21.30
2018-09-03T18:52:16.569Z,31.27
2018-09-03T18:54:45.242Z,32.13
2018-09-03T18:57:13.889Z,24.77
2018-09-03T18:59:42.811Z,31.43
2018-09-03T19:02:11.475Z,31.97
2018-09-03T19:04:40.200Z,36.83
2018-09-03T19:07:08.960Z,24.67
2018-09-03T19:09:37.725Z,32.97
2018-09-03T19:12:06.558Z,34.27
2018-09-03T19:14:35.176Z,41.60
2018-09-03T19:17:03.939Z,40.13
2018-09-03T19:19:32.752Z,37.77
2018-09-03T19:22:01.559Z,41.67
2018-09-03T19:24:33.517Z,53.63
2018-09-03T19:27:02.244Z,36.87
2018-09-03T19:29:34.067Z,36.90
2018-09-03T19:32:02.837Z,31.43
2018-09-03T19:34:31.501Z,35.30
2018-09-03T19:37:00.286Z,34.13
2018-09-03T19:39:29.006Z,33.53
2018-09-03T19:41:57.761Z,36.80
2018-09-03T19:44:26.435Z,32.30
2018-09-03T19:46:55.156Z,44.73
2018-09-03T19:49:23.955Z,36.13
2018-09-03T19:51:52.711Z,29.20
2018-09-03T19:54:21.317Z,34.33
2018-09-03T19:56:50.101Z,41.27
2018-09-03T19:59:18.812Z,36.40
2018-09-03T20:01:47.524Z,30.73
2018-09-03T20:04:16.237Z,35.20
2018-09-03T20:06:44.994Z,33.77
2018-09-03T20:09:13.600Z,55.17
2018-09-03T20:11:42.438Z,46.17
2018-09-03T20:14:11.217Z,42.20
2018-09-03T20:16:39.956Z,34.00
2018-09-03T20:19:08.618Z,35.00
2018-09-03T20:21:37.449Z,26.60
2018-09-03T20:24:06.231Z,44.43
2018-09-03T20:26:35.067Z,25.90
2018-09-03T20:29:03.722Z,40.93
2018-09-03T20:31:32.454Z,28.47
2018-09-03T20:34:01.155Z,29.00
2018-09-03T20:36:29.886Z,62.73
2018-09-03T20:38:58.476Z,35.50
2018-09-03T20:41:27.023Z,39.13
2018-09-03T20:43:55.674Z,35.40
2018-09-03T20:46:24.426Z,30.33
2018-09-03T20:48:53.066Z,29.03
2018-09-03T20:51:21.805Z,32.23
2018-09-03T20:53:50.503Z,35.60
2018-09-03T20:56:19.205Z,30.30
2018-09-03T20:58:47.929Z,33.17
2018-09-03T21:01:16.564Z,42.00
2018-09-03T21:03:45.359Z,36.80
2018-09-03T21:06:13.928Z,51.50
2018-09-03T21:08:42.507Z,47.83
2018-09-03T21:11:11.232Z,42.33
2018-09-03T21:13:40.034Z,46.00
2018-09-03T21:16:08.804Z,40.87
2018-09-03T21:18:37.479Z,49.83
2018-09-03T21:21:06.401Z,42.97
2018-09-03T21:23:35.134Z,41.37
2018-09-03T21:26:03.912Z,52.33
2018-09-03T21:28:32.776Z,35.30
2018-09-03T21:31:01.595Z,39.53
2018-09-03T21:33:30.260Z,31.37
2018-09-03T21:35:58.888Z,51.73
2018-09-03T21:38:27.718Z,32.00
2018-09-03T21:40:56.479Z,28.30
2018-09-03T21:43:25.134Z,57.07
2018-09-03T21:45:53.792Z,56.37
2018-09-03T21:48:22.592Z,66.57
2018-09-03T21:50:51.306Z,55.10
2018-09-03T21:53:20.060Z,52.43
2018-09-03T21:55:48.681Z,52.77
2018-09-03T21:58:17.436Z,53.03
2018-09-03T22:00:46.201Z,50.77
2018-09-03T22:03:14.902Z,48.47
2018-09-03T22:05:43.641Z,52.30
2018-09-03T22:08:12.370Z,58.40
2018-09-03T22:10:41.063Z,62.47
2018-09-03T22:13:09.667Z,75.07
2018-09-03T22:15:39.954Z,59.67
2018-09-03T22:18:10.061Z,87.43
2018-09-03T22:20:40.231Z,93.43
2018-09-03T22:23:08.940Z,71.63
2018-09-03T22:25:37.708Z,69.17
2018-09-03T22:28:06.431Z,65.20
2018-09-03T22:30:35.250Z,72.53
2018-09-03T22:33:03.916Z,65.90
2018-09-03T22:35:32.653Z,75.33
2018-09-03T22:38:01.245Z,68.33
2018-09-03T22:40:29.982Z,70.80
2018-09-03T22:42:58.611Z,77.20
2018-09-03T22:45:27.133Z,72.60
2018-09-03T22:47:55.772Z,78.70
2018-09-03T22:50:24.346Z,74.67
2018-09-03T22:52:53.050Z,73.90
2018-09-03T22:55:21.677Z,72.30
2018-09-03T22:57:50.417Z,61.43
2018-09-03T23:00:19.107Z,62.53
2018-09-03T23:02:48.282Z,71.23
2018-09-03T23:05:16.880Z,68.40
2018-09-03T23:07:45.611Z,63.93
2018-09-03T23:10:14.153Z,52.30
2018-09-03T23:12:42.820Z,66.03
2018-09-03T23:15:11.381Z,62.37
2018-09-03T23:17:40.161Z,56.67
2018-09-03T23:20:08.736Z,52.70
2018-09-03T23:22:37.359Z,73.73
2018-09-03T23:25:06.116Z,59.30
2018-09-03T23:27:34.775Z,73.10
2018-09-03T23:30:03.471Z,57.70
2018-09-03T23:32:32.221Z,43.37
2018-09-03T23:35:00.791Z,69.10
2018-09-03T23:37:29.377Z,56.77
2018-09-03T23:39:58.139Z,60.53
2018-09-03T23:42:26.809Z,68.37
2018-09-03T23:44:55.457Z,58.07
2018-09-03T23:47:24.128Z,54.83
2018-09-03T23:49:52.655Z,82.60
2018-09-03T23:52:21.337Z,108.53
2018-09-03T23:54:50.041Z,70.57
2018-09-03T23:57:18.707Z,56.83
2018-09-03T23:59:47.477Z,55.63
